Time;durP1;ratioP1;P1;durP2;ratioP2;P2;SDS_P1;SDS_P2;PMS_P1;PMS_P2;Temp;Humidity;BMP_temperature;BMP_pressure;BME280_temperature;BME280_humidity;BME280_pressure;Samples;Min_cycle;Max_cycle;Signal;HPM_P1;HPM_P2
2021/06/23 00:00:40;;;;;;;4.62;2.90;;;;;;;28.99;49.02;99698.75;1773658;78;21140;-67
2021/06/23 00:03:07;;;;;;;3.87;2.75;;;;;;;28.99;49.07;99701.48;1773584;78;21093;-67
2021/06/23 00:05:33;;;;;;;3.27;2.50;;;;;;;28.98;49.11;99697.66;1772998;78;21014;-67
2021/06/23 00:08:00;;;;;;;4.62;3.02;;;;;;;28.97;49.13;99700.93;1778812;79;21045;-68
2021/06/23 00:10:26;;;;;;;4.17;2.83;;;;;;;28.95;49.14;99703.14;1767990;78;21336;-67
2021/06/23 00:12:54;;;;;;;3.75;2.67;;;;;;;28.95;49.18;99700.41;1772260;80;21147;-68
2021/06/23 00:15:21;;;;;;;4.42;2.70;;;;;;;28.94;49.20;99699.36;1792058;78;21644;-68
2021/06/23 00:17:47;;;;;;;3.42;2.80;;;;;;;28.93;49.25;99704.55;1783817;78;21136;-66
2021/06/23 00:20:15;;;;;;;3.72;2.90;;;;;;;28.92;49.26;99705.67;1787080;78;21080;-67
2021/06/23 00:22:43;;;;;;;3.50;2.72;;;;;;;28.91;49.29;99708.12;1740032;81;22058;-68
2021/06/23 00:25:11;;;;;;;3.55;2.80;;;;;;;28.89;49.30;99695.30;1775297;80;21094;-68
2021/06/23 00:27:38;;;;;;;3.67;3.10;;;;;;;28.89;49.35;99696.11;1761217;81;21014;-68
2021/06/23 00:30:06;;;;;;;3.02;2.75;;;;;;;28.88;49.36;99700.50;1754864;80;21025;-67
2021/06/23 00:32:35;;;;;;;4.40;3.30;;;;;;;28.87;49.42;99698.33;1752145;81;21022;-67
2021/06/23 00:35:04;;;;;;;3.33;2.87;;;;;;;28.86;49.43;99699.98;1759565;80;21526;-67
2021/06/23 00:37:30;;;;;;;5.10;3.05;;;;;;;28.85;49.48;99698.36;1758078;81;22161;-67
2021/06/23 00:39:58;;;;;;;6.08;2.98;;;;;;;28.84;49.50;99696.19;1755511;81;21062;-67
2021/06/23 00:42:24;;;;;;;4.87;3.05;;;;;;;28.82;49.51;99699.20;1788813;78;21036;-67
2021/06/23 00:44:52;;;;;;;4.17;3.20;;;;;;;28.81;49.56;99700.30;1753945;80;21482;-67
2021/06/23 00:47:18;;;;;;;3.08;2.70;;;;;;;28.81;49.61;99694.02;1761611;80;21059;-67
2021/06/23 00:49:45;;;;;;;3.72;2.87;;;;;;;28.79;49.63;99694.31;1756174;80;21134;-67
2021/06/23 00:52:16;;;;;;;6.87;3.33;;;;;;;28.79;49.64;99696.23;1732651;80;21080;-66
2021/06/23 00:54:51;;;;;;;4.67;2.67;;;;;;;28.77;49.65;99699.25;1782037;80;21131;-66
2021/06/23 00:57:20;;;;;;;4.53;3.02;;;;;;;28.76;49.70;99694.91;1753568;80;23972;-66
2021/06/23 00:59:52;;;;;;;3.37;3.02;;;;;;;28.76;49.73;99698.17;1799805;78;21012;-69
2021/06/23 01:02:20;;;;;;;3.75;3.17;;;;;;;28.73;49.79;99698.20;1789632;78;21563;-67
2021/06/23 01:04:49;;;;;;;5.00;3.20;;;;;;;28.73;49.77;99700.14;1798342;78;21072;-67
2021/06/23 01:07:18;;;;;;;4.95;3.50;;;;;;;28.72;49.80;99695.76;1767348;80;21026;-68
2021/06/23 01:09:46;;;;;;;4.05;3.30;;;;;;;28.70;49.85;99691.95;1783576;78;21010;-67
2021/06/23 01:12:20;;;;;;;3.85;2.80;;;;;;;28.71;49.89;99691.41;1793177;78;21081;-66
2021/06/23 01:14:46;;;;;;;3.42;3.02;;;;;;;28.69;49.90;99701.27;1732767;80;21150;-68
2021/06/23 01:17:14;;;;;;;4.45;3.15;;;;;;;28.68;49.92;99697.45;1773735;79;21072;-68
2021/06/23 01:19:43;;;;;;;4.47;3.20;;;;;;;28.67;49.93;99695.27;1772355;78;21095;-69
2021/06/23 01:22:16;;;;;;;5.17;3.00;;;;;;;28.67;49.97;99694.47;1771932;78;21022;-69
2021/06/23 01:24:43;;;;;;;3.77;3.30;;;;;;;28.65;50.01;99694.75;1773871;78;20985;-69
2021/06/23 01:27:10;;;;;;;2.65;2.45;;;;;;;28.63;50.01;99695.03;1765093;78;21037;-69
2021/06/23 01:29:38;;;;;;;4.62;3.25;;;;;;;28.62;50.06;99696.68;1771829;78;21040;-70
2021/06/23 01:32:08;;;;;;;4.33;2.90;;;;;;;28.62;50.08;99698.05;1765782;78;21015;-68
2021/06/23 01:34:35;;;;;;;3.67;3.08;;;;;;;28.61;50.08;99687.68;1774873;78;22248;-69
2021/06/23 01:37:02;;;;;;;2.87;2.50;;;;;;;28.61;50.11;99690.97;1775417;78;21045;-68
2021/06/23 01:39:30;;;;;;;2.70;2.40;;;;;;;28.60;50.14;99690.70;1769012;78;21217;-68
2021/06/23 01:41:57;;;;;;;3.67;2.60;;;;;;;28.59;50.14;99687.72;1769876;78;21089;-69
2021/06/23 01:44:24;;;;;;;2.70;2.47;;;;;;;28.60;50.15;99694.80;1772080;78;21517;-69
2021/06/23 01:46:51;;;;;;;3.02;2.60;;;;;;;28.58;50.15;99690.98;1767755;78;21034;-68
2021/06/23 01:49:21;;;;;;;3.05;2.80;;;;;;;28.58;50.20;99697.00;1764751;79;21094;-66
2021/06/23 01:51:48;;;;;;;4.78;2.80;;;;;;;28.58;50.20;99697.00;1742635;80;21093;-67
2021/06/23 01:54:15;;;;;;;3.85;3.10;;;;;;;28.57;50.22;99684.45;1772005;78;21023;-68
2021/06/23 01:56:43;;;;;;;3.90;2.70;;;;;;;28.57;50.23;99688.56;1733510;80;21509;-68
2021/06/23 01:59:10;;;;;;;4.15;2.65;;;;;;;28.56;50.24;99689.09;1773467;78;21039;-68
2021/06/23 02:02:15;;;;;;;3.62;2.83;;;;;;;28.56;50.28;99693.75;1760941;79;21090;-67
2021/06/23 02:04:53;;;;;;;2.72;2.45;;;;;;;28.55;50.28;99694.30;1704845;83;21125;-68
2021/06/23 02:07:51;;;;;;;3.35;2.70;;;;;;;28.53;50.31;99693.78;1754973;79;21011;-67
2021/06/23 02:10:47;;;;;;;;;;;;;;;28.52;50.37;99691.33;1789946;77;21100;-67
2021/06/23 02:13:50;;;;;;;3.27;2.60;;;;;;;28.50;50.42;99696.24;1817763;77;20476;-67
2021/06/23 02:16:24;;;;;;;5.25;2.67;;;;;;;28.39;50.61;99697.69;1817393;77;21050;-66
2021/06/23 02:18:52;;;;;;;3.20;2.65;;;;;;;28.38;50.67;99693.34;1823796;78;21096;-67
2021/06/23 02:21:23;;;;;;;3.43;2.80;;;;;;;28.39;50.70;99698.24;1820041;77;21058;-66
2021/06/23 02:23:52;;;;;;;3.33;2.58;;;;;;;28.39;50.73;99700.41;1833703;77;21056;-66
2021/06/23 02:26:18;;;;;;;3.02;2.72;;;;;;;28.39;50.73;99698.24;1822619;77;21028;-67
2021/06/23 02:28:45;;;;;;;3.27;2.55;;;;;;;28.40;50.72;99702.06;1821651;77;21529;-66
2021/06/23 02:31:13;;;;;;;3.52;2.70;;;;;;;28.41;50.75;99700.13;1818325;77;21081;-67
2021/06/23 02:33:41;;;;;;;3.00;2.70;;;;;;;28.42;50.70;99697.13;1800454;78;21061;-65
2021/06/23 02:36:09;;;;;;;4.28;2.80;;;;;;;28.43;50.72;99702.86;1820244;77;21016;-66
2021/06/23 02:38:37;;;;;;;3.25;2.95;;;;;;;28.42;50.72;99701.22;1823703;77;21073;-67
2021/06/23 02:41:04;;;;;;;2.55;2.35;;;;;;;28.43;50.70;99708.33;1831086;77;21836;-67
2021/06/23 02:43:33;;;;;;;3.65;3.27;;;;;;;28.45;50.71;99709.38;1820555;77;21092;-66
2021/06/23 02:46:03;;;;;;;3.62;2.55;;;;;;;28.44;50.70;99705.84;1815866;77;21017;-65
2021/06/23 02:48:29;;;;;;;3.40;3.10;;;;;;;28.46;50.69;99704.75;1820492;78;21061;-67
2021/06/23 02:51:22;;;;;;;2.85;2.40;;;;;;;28.46;50.70;99704.75;1809699;77;21030;-67
2021/06/23 02:53:52;;;;;;;2.95;2.52;;;;;;;28.46;50.72;99705.56;1819406;77;21575;-67
2021/06/23 02:56:20;;;;;;;3.05;2.40;;;;;;;28.45;50.71;99701.19;1822007;77;21141;-66
2021/06/23 02:58:49;;;;;;;3.15;2.50;;;;;;;28.46;50.70;99708.30;1822795;77;21025;-67
2021/06/23 03:01:16;;;;;;;2.75;2.35;;;;;;;28.46;50.70;99711.02;1825305;77;20993;-67
2021/06/23 03:03:44;;;;;;;3.22;2.67;;;;;;;28.48;50.69;99713.48;1821994;78;20986;-68
2021/06/23 03:06:11;;;;;;;2.95;2.50;;;;;;;28.48;50.72;99712.11;1821885;77;21498;-69
2021/06/23 03:08:38;;;;;;;3.20;2.70;;;;;;;28.47;50.71;99711.27;1831440;77;21056;-67
2021/06/23 03:11:07;;;;;;;2.87;2.30;;;;;;;28.48;50.72;99706.64;1831016;77;21528;-69
2021/06/23 03:13:41;;;;;;;2.98;2.37;;;;;;;28.49;50.73;99708.26;1833087;77;21001;-66
2021/06/23 03:16:11;;;;;;;2.90;2.70;;;;;;;28.49;50.72;99709.09;1821294;77;21033;-66
2021/06/23 03:18:40;;;;;;;3.50;2.60;;;;;;;28.49;50.72;99711.83;1811166;77;21492;-66
2021/06/23 03:21:08;;;;;;;3.10;2.80;;;;;;;28.50;50.72;99701.70;1808350;77;21927;-68
2021/06/23 03:23:38;;;;;;;3.20;2.70;;;;;;;28.51;50.71;99704.69;1852473;76;20953;-68
2021/06/23 03:26:06;;;;;;;3.08;2.77;;;;;;;28.51;50.72;99704.69;1815478;77;21053;-67
2021/06/23 03:28:35;;;;;;;4.60;2.90;;;;;;;28.51;50.73;99707.42;1822309;77;21482;-66
2021/06/23 03:31:02;;;;;;;3.00;2.65;;;;;;;28.52;50.75;99705.80;1824502;78;20962;-68
2021/06/23 03:33:31;;;;;;;2.95;2.65;;;;;;;28.52;50.75;99703.63;1818159;77;21910;-67
2021/06/23 03:36:06;;;;;;;3.25;2.77;;;;;;;28.52;50.75;99701.70;1818265;77;21058;-65
2021/06/23 03:38:33;;;;;;;3.25;2.58;;;;;;;28.53;50.74;99702.51;1822018;77;21084;-66
2021/06/23 03:41:00;;;;;;;4.42;3.20;;;;;;;28.54;50.76;99702.78;1820790;77;21051;-68
2021/06/23 03:43:27;;;;;;;2.83;2.40;;;;;;;28.54;50.77;99705.52;1820278;77;21048;-67
2021/06/23 03:45:55;;;;;;;2.83;2.42;;;;;;;28.55;50.76;99709.34;1821113;78;23107;-66
2021/06/23 03:48:21;;;;;;;2.58;2.37;;;;;;;28.56;50.75;99712.31;1823498;78;21005;-67
2021/06/23 03:50:50;;;;;;;2.80;2.60;;;;;;;28.57;50.74;99714.52;1819980;77;21067;-68
2021/06/23 03:53:17;;;;;;;2.60;2.05;;;;;;;28.57;50.75;99718.05;1817767;78;21555;-67
2021/06/23 03:55:44;;;;;;;2.77;2.30;;;;;;;28.59;50.73;99719.14;1820640;77;21046;-68
2021/06/23 03:58:12;;;;;;;3.15;2.70;;;;;;;28.60;50.73;99723.48;1822715;77;21833;-67
2021/06/23 04:00:39;;;;;;;2.60;2.37;;;;;;;28.60;50.72;99716.09;1824074;77;21065;-68
2021/06/23 04:03:10;;;;;;;2.75;2.50;;;;;;;28.61;50.72;99720.47;1820723;78;20991;-68
2021/06/23 04:05:38;;;;;;;3.02;2.50;;;;;;;28.62;50.75;99715.25;1814477;77;21013;-65
2021/06/23 04:08:06;;;;;;;2.72;2.42;;;;;;;28.64;50.71;99713.61;1824924;77;21014;-67
2021/06/23 04:10:33;;;;;;;2.50;2.30;;;;;;;28.66;50.69;99714.69;1824398;77;21125;-68
2021/06/23 04:12:59;;;;;;;2.35;2.15;;;;;;;28.67;50.68;99712.23;1842968;77;21029;-67
2021/06/23 04:15:26;;;;;;;2.60;2.40;;;;;;;28.69;50.67;99705.92;1830567;77;21039;-67
2021/06/23 04:17:53;;;;;;;4.28;2.75;;;;;;;28.70;50.66;99711.63;1830354;77;21073;-66
2021/06/23 04:20:20;;;;;;;2.60;2.22;;;;;;;28.71;50.62;99715.45;1830226;77;21001;-67
2021/06/23 04:22:54;;;;;;;2.67;2.47;;;;;;;28.72;50.60;99710.23;1826688;77;22342;-67
2021/06/23 04:28:09;;;;;;;2.45;2.20;;;;;;;28.80;50.58;99704.16;1861392;75;22365;-67
2021/06/23 04:30:37;;;;;;;2.92;2.62;;;;;;;28.74;50.67;99703.95;1846689;75;21059;-67
2021/06/23 04:33:04;;;;;;;2.92;2.27;;;;;;;28.77;50.62;99708.02;1850357;75;21077;-66
2021/06/23 04:35:32;;;;;;;2.25;2.05;;;;;;;28.79;50.57;99707.98;1842521;75;21076;-68
2021/06/23 04:37:59;;;;;;;2.52;2.25;;;;;;;28.82;50.54;99706.05;1848667;75;21081;-68
2021/06/23 04:40:26;;;;;;;2.98;2.33;;;;;;;28.87;50.50;99707.89;1842368;75;20988;-67
2021/06/23 04:42:53;;;;;;;2.92;2.72;;;;;;;28.91;50.42;99706.20;1857968;75;21027;-67
2021/06/23 04:45:20;;;;;;;2.47;2.27;;;;;;;28.95;50.33;99699.05;1841130;75;21898;-67
2021/06/23 04:47:49;;;;;;;2.30;2.10;;;;;;;28.98;50.40;99698.47;1849518;75;21033;-67
2021/06/23 04:50:15;;;;;;;2.70;2.50;;;;;;;29.02;50.46;99700.08;1844735;75;21619;-67
2021/06/23 04:52:56;;;;;;;3.15;2.25;;;;;;;29.05;50.41;99695.93;1847020;75;21064;-67
2021/06/23 04:55:24;;;;;;;3.10;2.47;;;;;;;29.07;50.40;99698.66;1842760;75;21079;-67
2021/06/23 04:57:52;;;;;;;3.58;2.40;;;;;;;29.10;50.33;99695.31;1840166;75;21849;-69
2021/06/23 05:00:21;;;;;;;2.33;2.12;;;;;;;29.13;50.26;99691.20;1837806;75;21446;-68
2021/06/23 05:02:47;;;;;;;2.60;2.40;;;;;;;29.17;50.19;99690.91;1835306;75;21028;-68
2021/06/23 05:05:14;;;;;;;2.55;2.17;;;;;;;29.18;50.14;99694.69;1838494;75;20985;-69
2021/06/23 05:07:41;;;;;;;2.60;2.27;;;;;;;29.20;50.13;99688.37;1850838;75;21037;-68
2021/06/23 05:10:09;;;;;;;2.55;2.20;;;;;;;29.24;50.20;99691.91;1836717;76;21200;-68
2021/06/23 05:12:36;;;;;;;2.25;2.05;;;;;;;29.26;50.30;99696.52;1853636;75;21048;-68
2021/06/23 05:15:04;;;;;;;2.65;2.45;;;;;;;29.26;50.41;99694.59;1858857;75;21507;-67
2021/06/23 05:17:31;;;;;;;2.35;2.17;;;;;;;29.28;50.34;99696.48;1876720;75;21249;-68
2021/06/23 05:19:57;;;;;;;2.98;2.25;;;;;;;29.30;50.37;99696.19;1846979;75;21044;-69
2021/06/23 05:22:24;;;;;;;2.05;1.85;;;;;;;29.32;50.44;99698.91;1857128;75;21119;-67
2021/06/23 05:24:50;;;;;;;2.52;2.33;;;;;;;29.35;50.40;99701.61;1856737;75;21028;-68
2021/06/23 05:27:17;;;;;;;2.62;2.40;;;;;;;29.36;50.36;99691.74;1850769;75;21047;-67
2021/06/23 05:29:44;;;;;;;2.47;2.27;;;;;;;29.38;50.41;99701.00;1849301;75;20991;-67
2021/06/23 05:32:11;;;;;;;2.47;2.27;;;;;;;29.39;50.49;99710.29;1859010;75;21084;-67
2021/06/23 05:34:39;;;;;;;2.30;1.92;;;;;;;29.40;50.54;99707.02;1855535;75;21141;-68
2021/06/23 05:37:05;;;;;;;2.52;2.20;;;;;;;29.41;50.59;99712.17;1858340;75;21556;-68
2021/06/23 05:39:32;;;;;;;2.42;2.22;;;;;;;29.43;50.61;99709.16;1860149;75;21021;-69
2021/06/23 05:41:59;;;;;;;2.50;2.30;;;;;;;29.45;50.60;99697.92;1854532;75;21134;-68
2021/06/23 05:44:25;;;;;;;2.37;2.17;;;;;;;29.47;50.63;99695.70;1842819;75;21150;-69
2021/06/23 05:46:52;;;;;;;2.75;2.20;;;;;;;29.48;50.60;99702.25;1841165;75;21141;-69
2021/06/23 05:49:19;;;;;;;2.60;2.40;;;;;;;29.48;50.61;99695.41;1840080;75;21961;-68
2021/06/23 05:51:46;;;;;;;2.92;2.60;;;;;;;29.49;50.65;99695.66;1833696;75;21070;-67
2021/06/23 05:54:13;;;;;;;2.37;2.17;;;;;;;29.51;50.65;99693.43;1849281;75;21509;-70
2021/06/23 05:56:39;;;;;;;2.33;2.15;;;;;;;29.52;50.57;99689.60;1846109;75;21492;-69
2021/06/23 05:59:06;;;;;;;3.05;2.30;;;;;;;29.54;50.56;99690.12;1855192;75;21110;-71
2021/06/23 06:01:32;;;;;;;3.50;2.33;;;;;;;29.55;50.62;99693.12;1860276;75;21042;-68
2021/06/23 06:03:58;;;;;;;3.02;2.20;;;;;;;29.56;50.60;99683.80;1849840;76;21087;-69
2021/06/23 06:06:25;;;;;;;2.27;1.90;;;;;;;29.57;50.66;99675.86;1833671;75;21336;-69
2021/06/23 06:08:53;;;;;;;2.40;2.20;;;;;;;29.59;50.64;99675.53;1844340;76;21072;-71
2021/06/23 06:11:19;;;;;;;2.60;2.40;;;;;;;29.60;50.65;99668.40;1792097;78;21170;-70
2021/06/23 06:13:47;;;;;;;2.22;2.02;;;;;;;29.63;50.60;99664.81;1845142;75;21064;-68
2021/06/23 06:16:13;;;;;;;2.10;1.77;;;;;;;29.64;50.63;99667.26;1859933;75;21017;-68
2021/06/23 06:18:44;;;;;;;2.20;2.00;;;;;;;29.66;50.64;99661.49;1855583;76;21040;-68
2021/06/23 06:21:10;;;;;;;2.47;2.27;;;;;;;29.67;50.58;99661.20;1859308;76;21104;-67
2021/06/23 06:23:37;;;;;;;2.20;2.00;;;;;;;29.69;50.60;99662.25;1859410;75;21041;-68
2021/06/23 06:26:04;;;;;;;2.50;2.30;;;;;;;29.71;50.61;99658.66;1831597;75;20992;-69
2021/06/23 06:28:31;;;;;;;2.50;2.30;;;;;;;29.73;50.60;99661.97;1841846;75;21066;-68
2021/06/23 06:30:57;;;;;;;2.45;2.05;;;;;;;29.76;50.53;99659.98;1839564;76;21019;-68
2021/06/23 06:33:23;;;;;;;1.98;1.87;;;;;;;29.77;50.54;99656.95;1842341;77;21022;-68
2021/06/23 06:35:50;;;;;;;2.25;2.05;;;;;;;29.80;50.54;99658.28;1826720;76;21082;-69
2021/06/23 06:38:16;;;;;;;6.90;3.08;;;;;;;29.83;50.55;99656.89;1819836;76;21015;-68
2021/06/23 06:40:43;;;;;;;5.22;3.27;;;;;;;29.84;50.01;99656.56;1817234;76;21054;-69
2021/06/23 06:43:11;;;;;;;4.87;3.35;;;;;;;29.85;50.93;99655.47;1822259;76;21085;-65
2021/06/23 06:45:38;;;;;;;5.83;3.20;;;;;;;29.87;51.33;99655.17;1826745;76;20977;-68
2021/06/23 06:48:06;;;;;;;7.37;3.12;;;;;;;29.87;51.15;99655.17;1823521;76;22328;-68
2021/06/23 06:50:32;;;;;;;5.40;3.52;;;;;;;29.86;50.35;99650.80;1823337;76;21534;-68
2021/06/23 06:52:59;;;;;;;14.33;5.17;;;;;;;29.85;50.79;99652.73;1821620;76;21074;-66
2021/06/23 06:55:25;;;;;;;12.75;5.25;;;;;;;29.84;51.06;99645.61;1827619;76;21089;-65
2021/06/23 06:57:52;;;;;;;10.72;4.37;;;;;;;29.84;50.97;99650.28;1830633;76;21022;-71
2021/06/23 07:00:20;;;;;;;14.78;5.33;;;;;;;29.84;51.22;99644.24;1832294;76;21087;-62
2021/06/23 07:02:46;;;;;;;9.40;4.85;;;;;;;29.83;52.26;99647.30;1830270;76;21019;-62
2021/06/23 07:05:12;;;;;;;15.58;5.40;;;;;;;29.81;52.26;99644.86;1825126;76;21532;-64
2021/06/23 07:07:39;;;;;;;12.43;5.12;;;;;;;29.79;52.06;99640.23;1831862;76;21050;-65
2021/06/23 07:10:07;;;;;;;13.88;4.97;;;;;;;29.76;51.66;99636.16;1853441;76;21605;-65
2021/06/23 07:12:35;;;;;;;8.68;5.58;;;;;;;29.75;51.66;99637.28;1817095;76;21011;-65
2021/06/23 07:15:02;;;;;;;12.20;4.85;;;;;;;29.73;51.82;99645.55;1852336;76;21051;-64
2021/06/23 07:17:29;;;;;;;11.60;5.05;;;;;;;29.73;51.98;99644.17;1827401;76;21011;-64
2021/06/23 07:19:55;;;;;;;11.73;5.12;;;;;;;29.72;52.09;99650.72;1776212;77;21166;-64
2021/06/23 07:22:23;;;;;;;14.10;5.17;;;;;;;29.70;52.53;99646.91;1817082;76;21058;-64
2021/06/23 07:24:53;;;;;;;11.70;5.17;;;;;;;29.70;52.44;99651.57;1821886;76;21101;-70
2021/06/23 07:27:22;;;;;;;9.05;4.42;;;;;;;29.70;52.51;99661.16;1824142;76;21020;-69
2021/06/23 07:29:50;;;;;;;8.63;4.42;;;;;;;29.69;52.34;99662.25;1805686;76;21099;-68
2021/06/23 07:32:23;;;;;;;10.72;5.05;;;;;;;29.68;52.44;99662.81;1803773;76;21507;-68
2021/06/23 07:37:13;;;;;;;11.03;6.20;;;;;;;29.69;52.32;99667.19;1808718;77;21227;-64
2021/06/23 07:39:40;;;;;;;10.58;4.72;;;;;;;29.70;52.39;99662.52;1814217;77;21016;-65
2021/06/23 07:42:08;;;;;;;6.72;4.53;;;;;;;29.70;52.04;99668.80;1816220;76;21255;-63
2021/06/23 07:44:49;;;;;;;7.28;4.35;;;;;;;29.70;51.80;99666.06;1816915;77;21044;-65
2021/06/23 07:47:18;;;;;;;6.55;4.47;;;;;;;29.71;51.67;99664.97;1816203;76;21048;-63
2021/06/23 07:49:42;;;;;;;9.35;4.58;;;;;;;29.72;51.41;99667.14;1825045;76;21116;-63
2021/06/23 07:55:05;;;;;;;7.80;4.60;;;;;;;29.72;51.09;99665.77;1837412;76;21520;-65
2021/06/23 08:03:11;;;;;;;7.85;4.37;;;;;;;29.71;49.97;99655.92;1825847;76;21380;-67
2021/06/23 08:10:47;;;;;;;5.85;3.95;;;;;;;29.72;50.69;99648.81;1795624;77;21013;-63
2021/06/23 08:13:14;;;;;;;8.05;4.22;;;;;;;29.73;51.37;99657.86;1791431;78;21488;-63
2021/06/23 08:15:44;;;;;;;4.97;4.30;;;;;;;29.72;51.18;99665.23;1800412;77;21048;-62
2021/06/23 08:18:10;;;;;;;9.13;5.22;;;;;;;29.73;51.67;99659.23;1746792;80;21070;-64
2021/06/23 08:20:38;;;;;;;9.18;4.90;;;;;;;29.75;51.77;99662.48;1807840;77;20986;-62
2021/06/23 08:23:05;;;;;;;8.08;4.90;;;;;;;29.76;51.71;99666.27;1763657;80;21096;-63
2021/06/23 08:25:32;;;;;;;12.65;5.83;;;;;;;29.78;51.55;99664.05;1789152;79;21037;-62
2021/06/23 08:27:58;;;;;;;14.20;6.50;;;;;;;29.81;51.56;99668.70;1781725;78;21141;-63
2021/06/23 08:30:25;;;;;;;16.73;7.10;;;;;;;29.82;51.27;99669.74;1784125;78;21006;-63
2021/06/23 08:32:52;;;;;;;14.78;7.45;;;;;;;29.85;51.71;99667.78;1776453;78;22279;-65
2021/06/23 08:35:18;;;;;;;15.35;7.00;;;;;;;29.87;51.70;99670.23;1764244;78;21068;-66
2021/06/23 08:37:45;;;;;;;9.95;6.62;;;;;;;29.88;51.53;99665.00;1769891;78;21075;-66
2021/06/23 08:40:13;;;;;;;11.57;7.05;;;;;;;29.90;51.69;99673.19;1765689;78;21957;-66
2021/06/23 08:42:40;;;;;;;14.85;6.22;;;;;;;29.92;52.51;99673.70;1778896;78;21512;-64
2021/06/23 08:45:09;;;;;;;11.45;6.05;;;;;;;29.92;51.73;99670.97;1787016;78;21442;-65
2021/06/23 08:47:43;;;;;;;10.15;5.28;;;;;;;29.93;50.02;99672.58;1794098;78;21040;-64
2021/06/23 08:50:12;;;;;;;9.10;5.30;;;;;;;29.93;49.74;99669.84;1791562;78;21063;-65
2021/06/23 08:52:39;;;;;;;6.17;4.83;;;;;;;29.93;48.47;99665.73;1785846;78;21145;-65
2021/06/23 08:55:06;;;;;;;10.25;5.15;;;;;;;29.95;47.98;99668.17;1784215;78;21476;-66
2021/06/23 08:57:34;;;;;;;9.50;5.37;;;;;;;29.97;48.68;99671.42;1782084;78;21047;-66
2021/06/23 09:00:08;;;;;;;10.40;5.10;;;;;;;29.98;48.98;99671.70;1784047;78;21024;-66
2021/06/23 09:02:35;;;;;;;8.65;4.75;;;;;;;29.99;49.45;99664.53;1799330;78;21013;-66
2021/06/23 09:05:08;;;;;;;6.67;4.60;;;;;;;30.02;49.76;99659.56;1781101;79;21153;-68
2021/06/23 09:07:52;;;;;;;8.50;5.17;;;;;;;30.03;49.81;99661.20;1790039;78;20999;-67
2021/06/23 09:10:26;;;;;;;5.83;4.67;;;;;;;30.03;48.54;99658.47;1799236;77;21038;-65
2021/06/23 09:13:07;;;;;;;9.53;5.33;;;;;;;29.94;45.54;99643.26;1790650;77;21163;-67
2021/06/23 09:15:58;;;;;;;10.10;4.50;;;;;;;29.79;43.25;99653.93;1775263;78;21047;-67
2021/06/23 09:18:36;;;;;;;6.08;4.50;;;;;;;29.60;42.14;99646.50;1808499;77;21064;-61
2021/06/23 09:21:17;;;;;;;9.08;4.70;;;;;;;29.41;41.24;99645.70;1765729;79;20977;-63
2021/06/23 09:23:54;;;;;;;6.58;4.75;;;;;;;29.24;40.57;99646.77;1770091;78;21030;-64
2021/06/23 09:26:29;;;;;;;9.00;4.55;;;;;;;29.09;39.97;99652.69;1762469;78;21473;-67
2021/06/23 09:29:17;;;;;;;4.47;4.08;;;;;;;28.95;39.59;99649.02;1730150;80;21038;-67
2021/06/23 09:32:02;;;;;;;7.25;4.75;;;;;;;28.83;39.24;99650.81;1741769;81;21035;-64
2021/06/23 09:34:45;;;;;;;5.45;4.22;;;;;;;28.71;38.91;99638.12;1753229;80;21053;-64
2021/06/23 09:37:34;;;;;;;6.90;4.33;;;;;;;28.59;38.67;99646.73;1762355;79;22054;-64
2021/06/23 09:40:17;;;;;;;5.80;4.37;;;;;;;28.48;38.55;99652.00;1759852;79;21080;-63
2021/06/23 09:42:59;;;;;;;9.90;4.78;;;;;;;28.39;38.70;99659.44;1764170;80;21049;-66
2021/06/23 09:45:24;;;;;;;7.78;4.62;;;;;;;28.33;38.72;99657.86;1746168;80;21346;-65
2021/06/23 09:48:04;;;;;;;8.48;5.15;;;;;;;28.27;38.70;99654.92;1772696;80;21498;-64
2021/06/23 09:50:33;;;;;;;7.78;5.20;;;;;;;28.24;38.64;99663.71;1760258;80;21489;-65
2021/06/23 09:53:13;;;;;;;10.38;5.65;;;;;;;28.21;38.55;99654.72;1751466;80;21033;-64
2021/06/23 09:55:46;;;;;;;9.60;5.75;;;;;;;28.19;38.54;99669.21;1758220;80;21002;-63
2021/06/23 09:58:15;;;;;;;11.75;6.35;;;;;;;28.17;38.59;99679.05;1777135;78;21126;-66
2021/06/23 10:01:01;;;;;;;14.13;6.72;;;;;;;28.17;38.71;99679.61;1749235;80;21099;-63
2021/06/23 10:03:30;;;;;;;11.88;6.58;;;;;;;28.15;38.83;99675.79;1767284;79;21516;-67
2021/06/23 10:05:57;;;;;;;13.20;6.33;;;;;;;28.13;38.84;99681.28;1763463;79;21018;-66
2021/06/23 10:08:25;;;;;;;13.80;6.97;;;;;;;28.12;38.86;99667.35;1754770;80;21084;-65
2021/06/23 10:10:54;;;;;;;11.57;6.90;;;;;;;28.12;38.97;99668.72;1769332;79;21029;-63
2021/06/23 10:13:21;;;;;;;11.00;6.10;;;;;;;28.12;39.10;99657.80;1768726;79;21056;-66
2021/06/23 10:15:49;;;;;;;12.95;6.97;;;;;;;28.11;39.15;99665.73;1776048;80;21124;-66
2021/06/23 10:18:17;;;;;;;12.47;6.75;;;;;;;28.11;39.16;99668.47;1751963;80;21097;-63
2021/06/23 10:20:46;;;;;;;12.33;6.90;;;;;;;28.10;39.17;99679.92;1750880;80;21643;-63
2021/06/23 10:23:12;;;;;;;15.32;7.50;;;;;;;28.08;39.30;99675.86;1756458;80;21121;-62
2021/06/23 10:25:39;;;;;;;14.00;7.45;;;;;;;28.08;39.40;99684.05;1772449;78;21049;-62
2021/06/23 10:28:05;;;;;;;14.78;6.60;;;;;;;28.08;39.40;99681.31;1750764;80;21072;-62
2021/06/23 10:30:32;;;;;;;11.73;6.47;;;;;;;28.08;39.38;99676.66;1740033;79;21101;-70
2021/06/23 10:32:59;;;;;;;12.93;6.65;;;;;;;28.09;39.34;99672.84;1752544;79;21023;-67
2021/06/23 10:35:26;;;;;;;11.15;6.50;;;;;;;28.10;39.26;99670.36;1745644;79;21116;-66
2021/06/23 10:37:52;;;;;;;12.60;6.60;;;;;;;28.12;39.18;99669.52;1755161;80;21056;-63
2021/06/23 10:40:19;;;;;;;11.73;6.33;;;;;;;28.14;39.12;99654.22;1746969;80;21107;-64
2021/06/23 10:42:47;;;;;;;9.28;6.03;;;;;;;28.16;39.04;99668.41;1750188;79;21026;-67
2021/06/23 10:45:14;;;;;;;12.03;6.28;;;;;;;28.17;38.95;99667.32;1754652;80;21024;-66
2021/06/23 10:47:46;;;;;;;12.23;6.45;;;;;;;28.20;38.90;99668.09;1753946;80;21108;-65
2021/06/23 10:50:31;;;;;;;10.45;6.95;;;;;;;28.22;38.80;99668.62;1727504;80;21050;-64
2021/06/23 10:52:58;;;;;;;9.68;6.05;;;;;;;28.24;38.73;99667.25;1715374;80;21080;-64
2021/06/23 10:55:31;;;;;;;11.88;6.50;;;;;;;28.26;38.65;99666.13;1768047;79;21041;-66
2021/06/23 10:58:05;;;;;;;;;;;;;;;28.27;38.64;99665.85;1778147;79;21525;-62
2021/06/23 11:00:32;;;;;;;12.30;6.03;;;;;;;28.29;38.52;99662.28;1745311;79;21061;-64
2021/06/23 11:03:02;;;;;;;13.25;6.55;;;;;;;28.23;38.59;99662.88;1749566;79;21012;-64
2021/06/23 11:05:47;;;;;;;9.63;5.80;;;;;;;28.26;38.53;99653.31;1774944;79;21099;-64
2021/06/23 11:08:33;;;;;;;9.75;6.28;;;;;;;28.30;38.42;99659.83;1767110;78;21101;-65
2021/06/23 11:11:07;;;;;;;10.45;6.00;;;;;;;28.32;38.37;99669.91;1757600;80;21679;-65
2021/06/23 11:13:37;;;;;;;10.20;5.50;;;;;;;28.34;38.43;99673.16;1765171;80;21026;-62
2021/06/23 11:16:05;;;;;;;11.05;6.15;;;;;;;28.37;38.29;99669.03;1745959;80;21094;-65
2021/06/23 11:18:37;;;;;;;9.15;5.47;;;;;;;28.39;38.22;99673.09;1770427;80;20995;-66
2021/06/23 11:21:18;;;;;;;9.33;5.00;;;;;;;28.42;38.11;99671.16;1753516;80;21085;-67
2021/06/23 11:23:59;;;;;;;9.18;5.62;;;;;;;28.45;38.07;99672.50;1764348;80;21038;-70
2021/06/23 11:26:33;;;;;;;8.68;5.95;;;;;;;28.47;38.01;99674.95;1757229;80;21082;-65
2021/06/23 11:29:14;;;;;;;10.05;6.30;;;;;;;28.50;37.91;99675.19;1751184;80;21009;-65
2021/06/23 11:31:51;;;;;;;;;;;;;;;28.52;37.87;99677.67;1804864;77;21571;-66
2021/06/23 11:34:40;;;;;;;9.70;5.17;;;;;;;28.53;37.77;99684.22;1788059;78;20274;-65
2021/06/23 11:37:17;;;;;;;9.85;5.30;;;;;;;28.48;37.85;99680.13;1794194;78;21103;-63
2021/06/23 11:39:44;;;;;;;7.72;5.47;;;;;;;28.51;37.78;99682.83;1810278;77;21130;-63
2021/06/23 11:42:12;;;;;;;9.35;5.78;;;;;;;28.53;37.69;99680.65;1813976;77;21049;-65
2021/06/23 11:44:39;;;;;;;9.73;5.55;;;;;;;28.56;37.64;99686.91;1808850;77;21071;-64
2021/06/23 11:47:07;;;;;;;7.58;5.83;;;;;;;28.58;37.63;99687.44;1816728;77;21093;-65
2021/06/23 11:49:35;;;;;;;9.60;6.97;;;;;;;28.60;37.61;99692.06;1820997;77;21037;-64
2021/06/23 11:52:04;;;;;;;14.43;9.90;;;;;;;28.62;37.55;99690.66;1808319;77;22010;-65
2021/06/23 11:54:31;;;;;;;14.75;10.40;;;;;;;28.66;37.47;99685.99;1816242;77;21064;-62
2021/06/23 11:56:57;;;;;;;15.20;9.18;;;;;;;28.68;37.43;99694.16;1805404;77;21029;-69
2021/06/23 11:59:24;;;;;;;12.05;8.78;;;;;;;28.70;37.37;99686.48;1788374;77;21025;-61
2021/06/23 12:01:51;;;;;;;13.18;8.68;;;;;;;28.73;37.30;99684.55;1810468;77;21029;-63